Time;durP1;ratioP1;P1;durP2;ratioP2;P2;SDS_P1;SDS_P2;PMS_P1;PMS_P2;Temp;Humidity;BMP_temperature;BMP_pressure;BME280_temperature;BME280_humidity;BME280_pressure;Samples;Min_cycle;Max_cycle;Signal;HPM_P1;HPM_P2
2024/02/13 00:00:57;;;;;;;16.50;11.30;;;;;;;;;;5074597;28;20483;-66
2024/02/13 00:03:24;;;;;;;14.47;10.70;;;;;;;;;;5076775;28;20533;-66
2024/02/13 00:05:51;;;;;;;13.90;10.53;;;;;;;;;;5076564;28;20447;-66
2024/02/13 00:08:18;;;;;;;18.00;11.37;;;;;;;;;;5076601;28;20451;-66
2024/02/13 00:10:46;;;;;;;16.17;11.47;;;;;;;;;;5076428;28;20534;-66
2024/02/13 00:13:15;;;;;;;18.57;12.17;;;;;;;;;;5076742;28;20849;-66
2024/02/13 00:15:44;;;;;;;15.30;12.03;;;;;;;;;;5076580;28;20443;-66
2024/02/13 00:18:11;;;;;;;17.20;11.90;;;;;;;;;;5076465;28;20807;-66
2024/02/13 00:20:38;;;;;;;16.83;12.00;;;;;;;;;;5076514;28;20526;-66
2024/02/13 00:23:07;;;;;;;16.90;12.30;;;;;;;;;;5076249;28;20501;-66
2024/02/13 00:25:34;;;;;;;19.30;13.30;;;;;;;;;;5076108;28;20490;-66
2024/02/13 00:28:01;;;;;;;19.40;14.13;;;;;;;;;;5076484;28;20621;-66
2024/02/13 00:30:28;;;;;;;18.60;13.37;;;;;;;;;;5076306;28;20534;-66
2024/02/13 00:32:57;;;;;;;21.27;13.17;;;;;;;;;;5076216;28;20447;-66
2024/02/13 00:35:24;;;;;;;19.50;14.00;;;;;;;;;;5076101;28;20445;-66
2024/02/13 00:37:51;;;;;;;16.63;11.80;;;;;;;;;;5075918;28;20549;-66
2024/02/13 00:40:18;;;;;;;20.30;14.07;;;;;;;;;;5075746;28;20470;-66
2024/02/13 00:42:45;;;;;;;17.70;13.30;;;;;;;;;;5076025;28;21006;-66
2024/02/13 00:45:12;;;;;;;20.47;13.80;;;;;;;;;;5076005;28;20451;-66
2024/02/13 00:47:40;;;;;;;17.20;12.77;;;;;;;;;;5075940;28;20534;-66
2024/02/13 00:50:09;;;;;;;14.17;12.10;;;;;;;;;;5075808;28;20439;-66
2024/02/13 00:52:39;;;;;;;19.83;13.90;;;;;;;;;;5075605;28;20439;-66
2024/02/13 00:55:07;;;;;;;20.67;13.27;;;;;;;;;;5075910;28;20534;-66
2024/02/13 00:57:34;;;;;;;18.97;13.70;;;;;;;;;;5075808;28;20792;-66
2024/02/13 01:00:03;;;;;;;18.40;13.53;;;;;;;;;;5075730;28;20538;-66
2024/02/13 01:02:30;;;;;;;18.30;13.33;;;;;;;;;;5075544;28;20475;-66
2024/02/13 01:04:56;;;;;;;18.10;12.77;;;;;;;;;;5075442;28;20443;-66
2024/02/13 01:07:25;;;;;;;19.97;14.13;;;;;;;;;;5075705;28;20489;-66
2024/02/13 01:09:52;;;;;;;21.47;13.63;;;;;;;;;;5075606;28;20448;-66
2024/02/13 01:12:19;;;;;;;21.10;14.13;;;;;;;;;;5075028;28;20448;-66
2024/02/13 01:14:46;;;;;;;18.40;14.07;;;;;;;;;;5075423;28;20505;-66
2024/02/13 01:17:13;;;;;;;18.13;12.83;;;;;;;;;;5075327;28;20803;-66
2024/02/13 01:19:40;;;;;;;21.40;13.70;;;;;;;;;;5075253;28;20827;-66
2024/02/13 01:22:07;;;;;;;20.83;13.83;;;;;;;;;;5075318;28;20479;-66
2024/02/13 01:24:35;;;;;;;20.90;13.27;;;;;;;;;;5075290;28;20538;-66
2024/02/13 01:27:02;;;;;;;18.33;12.87;;;;;;;;;;5075232;28;20879;-66
2024/02/13 01:29:29;;;;;;;20.57;13.60;;;;;;;;;;5075181;28;20535;-66
2024/02/13 01:31:56;;;;;;;18.17;13.23;;;;;;;;;;5074972;28;20447;-66
2024/02/13 01:34:23;;;;;;;19.50;13.80;;;;;;;;;;5074944;28;20454;-66
2024/02/13 01:36:50;;;;;;;19.03;13.27;;;;;;;;;;5075166;28;20445;-66
2024/02/13 01:39:17;;;;;;;17.90;12.40;;;;;;;;;;5074677;28;20503;-66
2024/02/13 01:41:45;;;;;;;21.67;14.10;;;;;;;;;;5074835;28;20483;-66
2024/02/13 01:44:13;;;;;;;16.60;11.73;;;;;;;;;;5074920;28;20945;-66
2024/02/13 01:46:40;;;;;;;19.53;13.20;;;;;;;;;;5074696;28;20470;-66
2024/02/13 01:49:09;;;;;;;19.20;13.70;;;;;;;;;;5075013;28;20527;-66
2024/02/13 01:51:37;;;;;;;17.97;12.93;;;;;;;;;;5074912;28;20535;-66
2024/02/13 01:54:04;;;;;;;22.47;13.23;;;;;;;;;;5074751;28;20536;-66
2024/02/13 01:56:33;;;;;;;18.70;12.53;;;;;;;;;;5074598;28;20535;-66
2024/02/13 01:59:03;;;;;;;20.87;13.37;;;;;;;;;;5074525;28;20447;-66
2024/02/13 02:01:30;;;;;;;20.60;12.43;;;;;;;;;;5074281;28;20478;-66
2024/02/13 02:03:59;;;;;;;19.37;13.60;;;;;;;;;;5074544;28;20452;-66
2024/02/13 02:06:26;;;;;;;16.33;12.07;;;;;;;;;;5074472;28;20515;-66
2024/02/13 02:08:55;;;;;;;21.30;12.70;;;;;;;;;;5074385;28;20439;-66
2024/02/13 02:11:23;;;;;;;19.03;12.50;;;;;;;;;;5074294;28;20439;-66
2024/02/13 02:13:52;;;;;;;19.27;12.00;;;;;;;;;;5074057;28;20462;-66
2024/02/13 02:16:20;;;;;;;18.00;12.50;;;;;;;;;;5074373;28;20443;-66
2024/02/13 02:18:47;;;;;;;20.93;12.97;;;;;;;;;;5074230;28;20538;-66
2024/02/13 02:21:15;;;;;;;19.03;12.90;;;;;;;;;;5074115;28;20870;-66
2024/02/13 02:23:42;;;;;;;16.87;11.50;;;;;;;;;;5073273;28;20448;-66
2024/02/13 02:26:10;;;;;;;18.43;11.83;;;;;;;;;;5073783;28;20947;-66
2024/02/13 02:28:37;;;;;;;17.47;12.40;;;;;;;;;;5073824;28;20439;-66
2024/02/13 02:31:05;;;;;;;18.30;12.00;;;;;;;;;;5073979;28;20447;-65
2024/02/13 02:33:32;;;;;;;19.97;13.20;;;;;;;;;;5073968;28;20520;-66
2024/02/13 02:35:59;;;;;;;17.00;12.03;;;;;;;;;;5073774;28;20530;-65
2024/02/13 02:38:26;;;;;;;18.23;12.53;;;;;;;;;;5073568;28;20554;-65
2024/02/13 02:40:52;;;;;;;20.70;13.20;;;;;;;;;;5073592;28;20528;-65
2024/02/13 02:43:21;;;;;;;27.23;12.60;;;;;;;;;;5073680;28;20487;-65
2024/02/13 02:45:48;;;;;;;19.70;13.27;;;;;;;;;;5073694;28;20443;-65
2024/02/13 02:48:16;;;;;;;16.43;11.70;;;;;;;;;;5073632;28;20530;-65
2024/02/13 02:50:43;;;;;;;20.37;13.30;;;;;;;;;;5073589;28;20443;-65
2024/02/13 02:53:10;;;;;;;17.00;11.87;;;;;;;;;;5073527;28;20493;-65
2024/02/13 02:55:37;;;;;;;21.17;12.17;;;;;;;;;;5073871;28;20440;-65
2024/02/13 02:58:04;;;;;;;21.77;10.53;;;;;;;;;;5073665;28;20469;-66
2024/02/13 03:00:33;;;;;;;20.10;12.43;;;;;;;;;;5073513;28;20450;-65
2024/02/13 03:03:00;;;;;;;15.47;11.07;;;;;;;;;;5073254;28;20521;-65
2024/02/13 03:05:28;;;;;;;14.90;11.37;;;;;;;;;;5073283;28;20537;-65
2024/02/13 03:07:55;;;;;;;17.37;11.53;;;;;;;;;;5073309;28;21121;-65
2024/02/13 03:10:22;;;;;;;14.60;10.30;;;;;;;;;;5073368;28;20529;-65
2024/02/13 03:12:49;;;;;;;14.73;10.07;;;;;;;;;;5073277;28;20534;-65
2024/02/13 03:15:17;;;;;;;12.60;10.07;;;;;;;;;;5073205;28;20539;-66
2024/02/13 03:17:47;;;;;;;15.50;10.10;;;;;;;;;;5073219;28;20454;-66
2024/02/13 03:20:14;;;;;;;16.83;10.23;;;;;;;;;;5073102;28;20443;-66
2024/02/13 03:22:42;;;;;;;13.90;9.00;;;;;;;;;;5072835;28;20467;-66
2024/02/13 03:25:09;;;;;;;14.50;9.33;;;;;;;;;;5073200;28;20490;-66
2024/02/13 03:27:36;;;;;;;13.17;8.60;;;;;;;;;;5073119;28;20530;-66
2024/02/13 03:30:03;;;;;;;12.57;9.00;;;;;;;;;;5073063;28;20554;-66
2024/02/13 03:32:30;;;;;;;9.33;7.60;;;;;;;;;;5072997;28;20535;-66
2024/02/13 03:34:58;;;;;;;10.50;7.33;;;;;;;;;;5072666;28;20450;-66
2024/02/13 03:37:25;;;;;;;8.97;7.27;;;;;;;;;;5073133;28;20871;-66
2024/02/13 03:39:52;;;;;;;10.50;7.83;;;;;;;;;;5072668;28;20562;-66
2024/02/13 03:42:19;;;;;;;9.87;7.80;;;;;;;;;;5073025;28;20478;-66
2024/02/13 03:44:46;;;;;;;8.00;6.40;;;;;;;;;;5072978;28;20447;-66
2024/02/13 03:47:13;;;;;;;15.47;7.20;;;;;;;;;;5072823;28;20456;-66
2024/02/13 03:49:40;;;;;;;12.00;6.80;;;;;;;;;;5072748;28;20538;-66
2024/02/13 03:52:09;;;;;;;12.80;6.70;;;;;;;;;;5073005;28;20454;-66
2024/02/13 03:54:36;;;;;;;12.30;7.90;;;;;;;;;;5072862;28;20451;-66
2024/02/13 03:57:03;;;;;;;10.67;7.17;;;;;;;;;;5072748;28;20485;-66
2024/02/13 03:59:30;;;;;;;10.20;7.10;;;;;;;;;;5072819;28;20486;-66
2024/02/13 04:01:57;;;;;;;12.70;7.63;;;;;;;;;;5072538;28;20529;-66
2024/02/13 04:04:24;;;;;;;10.93;6.40;;;;;;;;;;5072590;28;20475;-66
2024/02/13 04:06:51;;;;;;;11.90;6.10;;;;;;;;;;5072823;28;20435;-66
2024/02/13 04:09:19;;;;;;;9.33;6.60;;;;;;;;;;5072709;28;20872;-66
2024/02/13 04:11:46;;;;;;;7.30;5.70;;;;;;;;;;5072625;28;20812;-66
2024/02/13 04:14:13;;;;;;;9.27;5.90;;;;;;;;;;5072525;28;20935;-66
2024/02/13 04:16:41;;;;;;;7.60;6.33;;;;;;;;;;5072463;28;20448;-66
2024/02/13 04:19:08;;;;;;;8.57;6.30;;;;;;;;;;5072728;28;20443;-66
2024/02/13 04:21:37;;;;;;;8.73;6.07;;;;;;;;;;5072632;28;20538;-66
2024/02/13 04:24:05;;;;;;;8.40;6.53;;;;;;;;;;5072542;28;20562;-66
2024/02/13 04:26:33;;;;;;;6.47;5.67;;;;;;;;;;5072517;28;20451;-66
2024/02/13 04:29:00;;;;;;;17.57;6.57;;;;;;;;;;5072444;28;20470;-66
2024/02/13 04:31:27;;;;;;;8.60;5.10;;;;;;;;;;5072659;28;20443;-66
2024/02/13 04:33:54;;;;;;;9.90;6.10;;;;;;;;;;5072475;28;20443;-66
2024/02/13 04:36:21;;;;;;;6.18;5.57;;;;;;;;;;5072463;28;20552;-66
2024/02/13 04:38:48;;;;;;;7.10;5.63;;;;;;;;;;5072190;28;20300;-66
2024/02/13 04:41:15;;;;;;;5.60;5.00;;;;;;;;;;5072310;28;20443;-66
2024/02/13 04:43:44;;;;;;;8.00;5.47;;;;;;;;;;5072147;28;20475;-66
2024/02/13 04:46:11;;;;;;;5.00;4.43;;;;;;;;;;5072642;28;20811;-66
2024/02/13 04:48:38;;;;;;;8.85;6.10;;;;;;;;;;5075949;28;20454;-66
2024/02/13 04:51:05;;;;;;;5.43;4.93;;;;;;;;;;5075936;28;20193;-66
2024/02/13 04:53:32;;;;;;;6.60;4.70;;;;;;;;;;5076028;28;20810;-66
2024/02/13 04:55:59;;;;;;;7.25;4.85;;;;;;;;;;5075731;28;20447;-66
2024/02/13 04:58:31;;;;;;;5.93;5.40;;;;;;;;;;5075595;28;20637;-66
2024/02/13 05:01:04;;;;;;;4.27;3.87;;;;;;;;;;5075738;28;20443;-66
2024/02/13 05:03:42;;;;;;;7.55;4.90;;;;;;;;;;5075620;28;20528;-66
2024/02/13 05:08:55;;;;;;;4.40;3.70;;;;;;;;;;5075481;28;20438;-66
2024/02/13 05:11:22;;;;;;;5.10;4.47;;;;;;;;;;5075566;28;20444;-66
2024/02/13 05:13:49;;;;;;;7.20;4.60;;;;;;;;;;5075477;28;20537;-66
2024/02/13 05:16:18;;;;;;;6.47;4.80;;;;;;;;;;5075387;28;20495;-66
2024/02/13 05:18:45;;;;;;;5.60;4.47;;;;;;;;;;5075295;28;20439;-66
2024/02/13 05:21:13;;;;;;;5.63;4.03;;;;;;;;;;5075185;28;20527;-66
2024/02/13 05:23:40;;;;;;;5.50;4.40;;;;;;;;;;5075137;28;20885;-66
2024/02/13 05:26:08;;;;;;;4.93;4.17;;;;;;;;;;5075342;28;20867;-66
2024/02/13 05:28:37;;;;;;;5.33;4.80;;;;;;;;;;5074991;28;20439;-66
2024/02/13 05:31:05;;;;;;;6.60;4.63;;;;;;;;;;5075119;28;20443;-66
2024/02/13 05:33:33;;;;;;;6.30;4.13;;;;;;;;;;5075079;28;20938;-66
2024/02/13 05:36:01;;;;;;;12.17;4.80;;;;;;;;;;5074810;28;20513;-66
2024/02/13 05:38:28;;;;;;;5.70;4.30;;;;;;;;;;5074961;28;20867;-66
2024/02/13 05:40:55;;;;;;;6.37;4.80;;;;;;;;;;5074813;28;20443;-66
2024/02/13 05:43:22;;;;;;;5.73;4.67;;;;;;;;;;5074770;28;20485;-66
2024/02/13 05:45:49;;;;;;;4.50;4.10;;;;;;;;;;5074817;28;20447;-66
2024/02/13 05:48:18;;;;;;;6.23;4.13;;;;;;;;;;5074737;28;20448;-66
2024/02/13 05:50:46;;;;;;;5.63;4.60;;;;;;;;;;5074771;28;20448;-66
2024/02/13 05:53:13;;;;;;;6.90;5.93;;;;;;;;;;5074737;28;20439;-66
2024/02/13 05:55:41;;;;;;;5.77;4.80;;;;;;;;;;5074464;28;20931;-66
2024/02/13 05:58:08;;;;;;;4.80;4.33;;;;;;;;;;5074519;28;20448;-66
2024/02/13 06:00:34;;;;;;;6.30;4.37;;;;;;;;;;5074470;28;20561;-66
2024/02/13 06:03:05;;;;;;;7.87;5.73;;;;;;;;;;5074147;28;20482;-66
2024/02/13 06:05:31;;;;;;;9.40;5.00;;;;;;;;;;5074213;28;20989;-66
2024/02/13 06:08:00;;;;;;;6.57;5.80;;;;;;;;;;5074433;28;20475;-66
2024/02/13 06:10:27;;;;;;;6.07;5.47;;;;;;;;;;5074293;28;20534;-66
2024/02/13 06:12:56;;;;;;;7.63;5.80;;;;;;;;;;5074293;28;20447;-66
2024/02/13 06:15:23;;;;;;;9.63;5.60;;;;;;;;;;5073996;28;20440;-66
2024/02/13 06:17:50;;;;;;;10.63;5.40;;;;;;;;;;5073994;28;20440;-66
2024/02/13 06:20:18;;;;;;;7.93;5.80;;;;;;;;;;5074215;28;20527;-66
2024/02/13 06:22:45;;;;;;;6.70;5.90;;;;;;;;;;5073860;28;20534;-66
2024/02/13 06:25:14;;;;;;;11.27;5.90;;;;;;;;;;5073915;28;20952;-66
2024/02/13 06:27:41;;;;;;;9.00;6.00;;;;;;;;;;5073790;28;20953;-66
2024/02/13 06:30:09;;;;;;;6.83;5.47;;;;;;;;;;5073663;28;20538;-66
2024/02/13 06:32:36;;;;;;;7.00;6.30;;;;;;;;;;5073835;28;20531;-66
2024/02/13 06:35:03;;;;;;;7.53;6.00;;;;;;;;;;5073869;28;20530;-66
2024/02/13 06:37:30;;;;;;;11.43;6.50;;;;;;;;;;5073728;28;20534;-66
2024/02/13 06:39:57;;;;;;;7.83;7.07;;;;;;;;;;5073398;28;20804;-66
2024/02/13 06:42:25;;;;;;;8.17;6.50;;;;;;;;;;5073331;28;20527;-66
2024/02/13 06:44:52;;;;;;;10.97;5.63;;;;;;;;;;5073579;28;20487;-66
2024/02/13 06:47:19;;;;;;;12.53;6.40;;;;;;;;;;5073485;28;20791;-66
2024/02/13 06:49:46;;;;;;;8.80;6.50;;;;;;;;;;5073443;28;20535;-66
2024/02/13 06:52:13;;;;;;;7.10;5.67;;;;;;;;;;5073273;28;20533;-66
2024/02/13 06:54:41;;;;;;;7.73;5.60;;;;;;;;;;5073373;28;20451;-66
2024/02/13 06:57:09;;;;;;;6.23;5.43;;;;;;;;;;5073147;28;20517;-66
2024/02/13 06:59:37;;;;;;;11.03;5.30;;;;;;;;;;5073391;28;20450;-66
2024/02/13 07:02:04;;;;;;;6.70;6.00;;;;;;;;;;5073294;28;20493;-66
2024/02/13 07:04:31;;;;;;;6.13;5.60;;;;;;;;;;5073200;28;20483;-66
2024/02/13 07:07:01;;;;;;;10.30;7.27;;;;;;;;;;5073231;28;20530;-66
2024/02/13 07:09:27;;;;;;;6.43;5.80;;;;;;;;;;5072767;28;20435;-67
2024/02/13 07:11:54;;;;;;;7.77;6.97;;;;;;;;;;5072904;28;20875;-66
2024/02/13 07:14:21;;;;;;;7.63;6.10;;;;;;;;;;5073071;28;20534;-66
2024/02/13 07:16:50;;;;;;;7.60;5.63;;;;;;;;;;5073175;28;20880;-65
2024/02/13 07:19:17;;;;;;;6.73;5.53;;;;;;;;;;5073046;28;20501;-65
2024/02/13 07:21:44;;;;;;;7.43;5.47;;;;;;;;;;5072838;28;21000;-65
2024/02/13 07:24:11;;;;;;;6.33;5.57;;;;;;;;;;5072667;28;20571;-65
2024/02/13 07:26:37;;;;;;;7.13;5.23;;;;;;;;;;5072961;28;20538;-65
2024/02/13 07:29:05;;;;;;;6.60;6.00;;;;;;;;;;5073039;28;20444;-65
2024/02/13 07:31:34;;;;;;;7.17;5.20;;;;;;;;;;5072677;28;20448;-65
2024/02/13 07:34:03;;;;;;;6.53;5.20;;;;;;;;;;5072511;28;20500;-65
2024/02/13 07:36:30;;;;;;;9.30;5.57;;;;;;;;;;5072492;28;20479;-65
2024/02/13 07:38:57;;;;;;;7.00;5.77;;;;;;;;;;5072402;28;20525;-65
2024/02/13 07:41:24;;;;;;;6.23;4.73;;;;;;;;;;5072916;28;20529;-65
2024/02/13 07:43:51;;;;;;;6.90;5.03;;;;;;;;;;5072646;28;20475;-65
2024/02/13 07:46:18;;;;;;;8.23;5.97;;;;;;;;;;5072653;28;20531;-65
2024/02/13 07:48:47;;;;;;;7.67;6.87;;;;;;;;;;5072592;28;20455;-65
2024/02/13 07:51:16;;;;;;;5.20;4.80;;;;;;;;;;5072519;28;20783;-65
2024/02/13 07:53:43;;;;;;;9.30;5.90;;;;;;;;;;5072621;28;20841;-66
2024/02/13 07:56:12;;;;;;;7.10;5.73;;;;;;;;;;5072710;28;20444;-66
2024/02/13 07:58:39;;;;;;;9.97;5.90;;;;;;;;;;5072491;28;20946;-66
2024/02/13 08:01:07;;;;;;;12.60;6.37;;;;;;;;;;5072522;28;20443;-66
2024/02/13 08:03:35;;;;;;;13.33;6.20;;;;;;;;;;5072357;28;20471;-66
2024/02/13 08:06:02;;;;;;;8.50;7.30;;;;;;;;;;5072406;28;20812;-66
2024/02/13 08:08:30;;;;;;;10.50;6.70;;;;;;;;;;5072319;28;20443;-67
2024/02/13 08:10:59;;;;;;;6.47;5.87;;;;;;;;;;5072203;28;20451;-64
2024/02/13 08:13:26;;;;;;;7.17;6.47;;;;;;;;;;5072354;28;20444;-69
2024/02/13 08:15:52;;;;;;;8.40;6.27;;;;;;;;;;5072346;28;20549;-67
2024/02/13 08:18:19;;;;;;;7.73;7.00;;;;;;;;;;5072231;28;20534;-68
2024/02/13 08:20:46;;;;;;;8.67;6.90;;;;;;;;;;5072539;28;20440;-70
2024/02/13 08:23:13;;;;;;;8.40;7.27;;;;;;;;;;5076081;28;20524;-70
2024/02/13 08:25:42;;;;;;;10.63;8.07;;;;;;;;;;5076103;28;20447;-70
2024/02/13 08:28:12;;;;;;;7.60;6.80;;;;;;;;;;5075963;28;20870;-66
2024/02/13 08:30:39;;;;;;;10.80;9.37;;;;;;;;;;5075921;28;20497;-67
2024/02/13 08:33:06;;;;;;;9.90;7.93;;;;;;;;;;5075712;28;20447;-67
2024/02/13 08:35:33;;;;;;;9.00;7.70;;;;;;;;;;5075991;28;21017;-68
2024/02/13 08:38:00;;;;;;;10.07;7.83;;;;;;;;;;5075515;28;20449;-66
2024/02/13 08:40:27;;;;;;;11.80;7.07;;;;;;;;;;5075773;28;20853;-73
2024/02/13 08:42:56;;;;;;;9.40;8.07;;;;;;;;;;5075885;28;21000;-65
2024/02/13 08:45:24;;;;;;;8.77;7.47;;;;;;;;;;5075341;28;20532;-68
2024/02/13 08:47:51;;;;;;;14.90;8.53;;;;;;;;;;5075689;28;20447;-67
2024/02/13 08:50:18;;;;;;;9.57;7.10;;;;;;;;;;5075730;28;20451;-68
2024/02/13 08:52:45;;;;;;;10.57;7.60;;;;;;;;;;5075543;28;20542;-65
2024/02/13 08:55:13;;;;;;;10.27;7.90;;;;;;;;;;5075524;28;20542;-69
2024/02/13 08:57:40;;;;;;;9.60;7.33;;;;;;;;;;5075454;28;20444;-65
2024/02/13 09:00:09;;;;;;;8.13;7.20;;;;;;;;;;5075360;28;20522;-66
2024/02/13 09:02:36;;;;;;;14.33;7.60;;;;;;;;;;5075643;28;20471;-66
2024/02/13 09:05:04;;;;;;;8.23;7.40;;;;;;;;;;5075443;28;20566;-65
2024/02/13 09:07:30;;;;;;;9.93;7.60;;;;;;;;;;5075139;28;20447;-67
2024/02/13 09:09:57;;;;;;;8.97;7.40;;;;;;;;;;5075384;28;20707;-67
2024/02/13 09:12:25;;;;;;;10.90;6.87;;;;;;;;;;5075221;28;20444;-65
2024/02/13 09:14:52;;;;;;;8.77;7.80;;;;;;;;;;5074894;28;20542;-67
2024/02/13 09:17:20;;;;;;;10.50;8.17;;;;;;;;;;5075372;28;20463;-64
2024/02/13 09:19:47;;;;;;;9.00;7.10;;;;;;;;;;5075304;28;20526;-64
2024/02/13 09:22:14;;;;;;;12.87;7.53;;;;;;;;;;5075530;28;20526;-63
2024/02/13 09:24:43;;;;;;;8.53;7.10;;;;;;;;;;5075137;28;20570;-65
2024/02/13 09:27:11;;;;;;;8.33;7.53;;;;;;;;;;5074942;28;20440;-68
2024/02/13 09:29:38;;;;;;;8.30;7.50;;;;;;;;;;5075182;28;20470;-67
2024/02/13 09:32:05;;;;;;;10.30;6.83;;;;;;;;;;5074498;28;20448;-66
2024/02/13 09:34:34;;;;;;;6.90;6.20;;;;;;;;;;5074869;28;20471;-63
2024/02/13 09:37:01;;;;;;;10.07;6.77;;;;;;;;;;5074669;28;20490;-63
2024/02/13 09:39:28;;;;;;;8.60;6.50;;;;;;;;;;5074629;28;20464;-64
2024/02/13 09:41:55;;;;;;;7.17;6.40;;;;;;;;;;5074602;28;20522;-67
2024/02/13 09:44:23;;;;;;;6.70;6.10;;;;;;;;;;5074734;28;20520;-64
2024/02/13 09:46:52;;;;;;;12.00;10.80;;;;;;;;;;5074609;28;20436;-64
2024/02/13 09:49:19;;;;;;;8.47;6.20;;;;;;;;;;5074708;28;20445;-65
2024/02/13 09:51:49;;;;;;;7.67;6.87;;;;;;;;;;5074550;28;20471;-68
2024/02/13 09:54:18;;;;;;;5.80;5.23;;;;;;;;;;5074401;28;20462;-63
2024/02/13 09:56:45;;;;;;;11.50;5.90;;;;;;;;;;5074580;28;20807;-62
2024/02/13 09:59:12;;;;;;;8.03;6.47;;;;;;;;;;5074342;28;21014;-70
2024/02/13 10:01:39;;;;;;;6.80;5.93;;;;;;;;;;5074321;28;20450;-76
2024/02/13 10:04:07;;;;;;;6.13;5.33;;;;;;;;;;5074267;28;20558;-65
2024/02/13 10:06:34;;;;;;;6.53;5.30;;;;;;;;;;5074055;28;20856;-66
2024/02/13 10:09:02;;;;;;;10.13;6.33;;;;;;;;;;5074349;28;20531;-66
2024/02/13 10:11:34;;;;;;;9.33;5.40;;;;;;;;;;5074205;28;20534;-64
2024/02/13 10:14:01;;;;;;;6.80;5.50;;;;;;;;;;5074090;28;20448;-71
2024/02/13 10:16:28;;;;;;;8.10;5.10;;;;;;;;;;5073989;28;20448;-66
2024/02/13 10:18:57;;;;;;;9.37;5.67;;;;;;;;;;5073986;28;20527;-67
2024/02/13 10:21:25;;;;;;;12.40;5.20;;;;;;;;;;5073734;28;20479;-67
2024/02/13 10:23:53;;;;;;;4.77;4.27;;;;;;;;;;5074003;28;20447;-67
2024/02/13 10:26:22;;;;;;;6.73;4.73;;;;;;;;;;5073851;28;20443;-69
2024/02/13 10:28:54;;;;;;;6.90;5.17;;;;;;;;;;5073805;28;20444;-67
2024/02/13 10:31:23;;;;;;;7.20;4.13;;;;;;;;;;5073732;28;20501;-68
2024/02/13 10:33:50;;;;;;;4.73;4.07;;;;;;;;;;5073616;28;20451;-68
2024/02/13 10:36:18;;;;;;;5.30;4.80;;;;;;;;;;5073793;28;20446;-65
2024/02/13 10:38:48;;;;;;;7.30;4.53;;;;;;;;;;5073290;28;20475;-66
2024/02/13 10:41:21;;;;;;;4.97;4.50;;;;;;;;;;5073498;28;20447;-66
2024/02/13 10:43:52;;;;;;;6.37;3.90;;;;;;;;;;5072802;28;20440;-67
2024/02/13 10:46:21;;;;;;;15.63;5.07;;;;;;;;;;5073295;28;20914;-65
2024/02/13 10:48:52;;;;;;;8.13;3.83;;;;;;;;;;5073671;28;20509;-65
2024/02/13 10:51:20;;;;;;;13.73;4.10;;;;;;;;;;5073196;28;20938;-64
2024/02/13 10:53:48;;;;;;;3.93;3.63;;;;;;;;;;5073300;28;20439;-69
2024/02/13 10:56:16;;;;;;;4.47;3.97;;;;;;;;;;5073325;28;20450;-67
2024/02/13 10:58:44;;;;;;;4.77;3.27;;;;;;;;;;5072844;28;20535;-67
2024/02/13 11:01:15;;;;;;;4.10;2.70;;;;;;;;;;5073236;28;20436;-67
2024/02/13 11:03:42;;;;;;;4.13;3.73;;;;;;;;;;5073141;28;21008;-67
2024/02/13 11:06:10;;;;;;;3.00;2.63;;;;;;;;;;5073012;28;20483;-66
2024/02/13 11:08:38;;;;;;;2.83;2.63;;;;;;;;;;5073157;28;20448;-66
2024/02/13 11:11:14;;;;;;;5.23;2.40;;;;;;;;;;5072742;28;20527;-67
2024/02/13 11:13:41;;;;;;;3.40;2.30;;;;;;;;;;5073397;28;20973;-67
2024/02/13 11:16:09;;;;;;;5.50;2.93;;;;;;;;;;5073436;28;20531;-67
2024/02/13 11:18:44;;;;;;;3.20;2.50;;;;;;;;;;5073068;28;20450;-67
2024/02/13 11:21:11;;;;;;;11.47;4.23;;;;;;;;;;5073040;28;20780;-67
2024/02/13 11:23:38;;;;;;;4.57;2.70;;;;;;;;;;5072895;28;20448;-67
2024/02/13 11:26:06;;;;;;;3.27;2.57;;;;;;;;;;5073240;28;20475;-67
2024/02/13 11:28:34;;;;;;;4.10;1.63;;;;;;;;;;5072934;28;20443;-67
2024/02/13 11:31:00;;;;;;;2.90;1.80;;;;;;;;;;5073013;28;20513;-67
2024/02/13 11:33:28;;;;;;;1.40;1.17;;;;;;;;;;5072946;28;20471;-67
2024/02/13 11:35:58;;;;;;;3.63;1.63;;;;;;;;;;5072869;28;20439;-67
2024/02/13 11:38:27;;;;;;;3.30;2.50;;;;;;;;;;5072318;28;20463;-64
2024/02/13 11:40:55;;;;;;;1.40;1.07;;;;;;;;;;5072828;28;20443;-67
2024/02/13 11:43:24;;;;;;;3.83;1.33;;;;;;;;;;5072769;28;20444;-63
2024/02/13 11:45:51;;;;;;;1.77;1.53;;;;;;;;;;5072580;28;20514;-64
2024/02/13 11:48:20;;;;;;;1.73;1.53;;;;;;;;;;5072680;28;20451;-64
2024/02/13 11:50:47;;;;;;;3.43;1.40;;;;;;;;;;5072588;28;20792;-64
2024/02/13 11:53:17;;;;;;;1.47;1.33;;;;;;;;;;5072635;28;20458;-65
2024/02/13 11:55:44;;;;;;;6.90;2.53;;;;;;;;;;5074224;28;20853;-67
2024/02/13 11:58:16;;;;;;;4.00;1.87;;;;;;;;;;5076671;28;20473;-65
2024/02/13 12:00:44;;;;;;;1.87;1.10;;;;;;;;;;5076579;28;20452;-66
2024/02/13 12:03:12;;;;;;;1.67;1.03;;;;;;;;;;5076395;28;20455;-64
2024/02/13 12:05:39;;;;;;;2.87;2.10;;;;;;;;;;5076292;28;20570;-65
2024/02/13 12:08:09;;;;;;;4.27;1.73;;;;;;;;;;5076615;28;20450;-68
2024/02/13 12:10:37;;;;;;;2.20;1.67;;;;;;;;;;5076544;28;20443;-67
2024/02/13 12:13:06;;;;;;;11.10;4.27;;;;;;;;;;5076427;28;20519;-69
2024/02/13 12:15:33;;;;;;;6.07;3.10;;;;;;;;;;5076154;28;20447;-68
2024/02/13 12:18:03;;;;;;;1.70;1.27;;;;;;;;;;5076152;28;20522;-67
2024/02/13 12:20:32;;;;;;;3.07;1.37;;;;;;;;;;5076309;28;20439;-68
2024/02/13 12:22:59;;;;;;;1.70;0.90;;;;;;;;;;5076407;28;20526;-66
2024/02/13 12:25:26;;;;;;;3.53;1.03;;;;;;;;;;5076200;28;20486;-66
2024/02/13 12:28:00;;;;;;;6.00;1.57;;;;;;;;;;5075976;28;20546;-66
2024/02/13 12:30:27;;;;;;;1.83;1.20;;;;;;;;;;5075727;28;20451;-72
2024/02/13 12:32:54;;;;;;;4.30;1.47;;;;;;;;;;5076084;28;20542;-61
2024/02/13 12:35:32;;;;;;;4.20;1.60;;;;;;;;;;5076032;28;20569;-64
2024/02/13 12:38:13;;;;;;;52.27;25.30;;;;;;;;;;5075625;28;20454;-66
2024/02/13 12:40:40;;;;;;;16.10;7.10;;;;;;;;;;5075633;28;20466;-68
2024/02/13 12:43:08;;;;;;;9.97;4.07;;;;;;;;;;5075897;28;20522;-64
2024/02/13 12:45:41;;;;;;;28.60;13.20;;;;;;;;;;5075746;28;20811;-66
2024/02/13 12:48:08;;;;;;;4.70;2.10;;;;;;;;;;5075566;28;20443;-65
2024/02/13 12:50:35;;;;;;;7.53;2.60;;;;;;;;;;5075176;28;21010;-66
2024/02/13 12:53:03;;;;;;;23.93;4.60;;;;;;;;;;5075445;28;20449;-64
2024/02/13 12:55:32;;;;;;;5.73;1.80;;;;;;;;;;5074936;28;20474;-65
2024/02/13 12:57:58;;;;;;;3.67;1.90;;;;;;;;;;5075225;28;20475;-64
2024/02/13 13:00:28;;;;;;;2.20;1.77;;;;;;;;;;5075583;28;20806;-64
2024/02/13 13:02:57;;;;;;;6.70;2.33;;;;;;;;;;5075718;28;20990;-64
2024/02/13 13:05:26;;;;;;;25.97;9.20;;;;;;;;;;5075300;28;20471;-64
2024/02/13 13:07:58;;;;;;;3.70;1.57;;;;;;;;;;5074493;28;20469;-64
2024/02/13 13:10:26;;;;;;;19.90;5.63;;;;;;;;;;5074385;28;20442;-69
2024/02/13 13:12:54;;;;;;;2.57;2.33;;;;;;;;;;5075349;28;20193;-72
2024/02/13 13:15:21;;;;;;;4.70;4.03;;;;;;;;;;5075368;28;20454;-70
2024/02/13 13:17:49;;;;;;;2.30;1.37;;;;;;;;;;5075246;28;20977;-69
2024/02/13 13:20:18;;;;;;;3.23;1.30;;;;;;;;;;5075119;28;20534;-67
2024/02/13 13:22:47;;;;;;;3.53;1.03;;;;;;;;;;5075258;28;20887;-70
2024/02/13 13:25:20;;;;;;;1.63;1.30;;;;;;;;;;5075096;28;20463;-69
2024/02/13 13:27:47;;;;;;;1.43;1.33;;;;;;;;;;5074879;28;20535;-69
2024/02/13 13:30:15;;;;;;;2.80;1.10;;;;;;;;;;5075033;28;20443;-69
2024/02/13 13:32:44;;;;;;;2.20;1.27;;;;;;;;;;5074956;28;20454;-69
2024/02/13 13:35:13;;;;;;;4.27;1.80;;;;;;;;;;5074707;28;20580;-65
2024/02/13 13:37:40;;;;;;;3.03;1.63;;;;;;;;;;5074742;28;20443;-68
2024/02/13 13:40:12;;;;;;;3.87;1.30;;;;;;;;;;5074551;28;20474;-66
2024/02/13 13:42:43;;;;;;;4.68;2.50;;;;;;;;;;5073850;28;20934;-65
2024/02/13 13:45:10;;;;;;;3.57;1.43;;;;;;;;;;5074493;28;20580;-62
2024/02/13 13:47:37;;;;;;;2.23;1.10;;;;;;;;;;5074466;28;20873;-64
2024/02/13 13:50:07;;;;;;;2.40;1.10;;;;;;;;;;5074506;28;20876;-65
2024/02/13 13:52:35;;;;;;;2.23;1.27;;;;;;;;;;5074517;28;20467;-65
2024/02/13 13:55:02;;;;;;;2.03;1.50;;;;;;;;;;5074365;28;20479;-68
2024/02/13 13:57:29;;;;;;;4.50;1.80;;;;;;;;;;5074362;28;20439;-62
2024/02/13 13:59:57;;;;;;;7.30;1.50;;;;;;;;;;5074228;28;20474;-63
2024/02/13 14:02:25;;;;;;;2.23;1.20;;;;;;;;;;5074481;28;20530;-66
2024/02/13 14:04:52;;;;;;;8.83;1.67;;;;;;;;;;5074364;28;20475;-63
2024/02/13 14:07:20;;;;;;;4.00;1.57;;;;;;;;;;5074122;28;20486;-64
2024/02/13 14:09:48;;;;;;;4.83;2.00;;;;;;;;;;5074304;28;20457;-63
2024/02/13 14:12:15;;;;;;;2.13;1.37;;;;;;;;;;5074249;28;20546;-64
2024/02/13 14:14:42;;;;;;;1.40;1.30;;;;;;;;;;5074035;28;20530;-63
2024/02/13 14:17:09;;;;;;;2.60;1.80;;;;;;;;;;5074292;28;20486;-63
2024/02/13 14:19:36;;;;;;;4.10;1.37;;;;;;;;;;5072648;28;20474;-64
2024/02/13 14:22:06;;;;;;;2.90;1.60;;;;;;;;;;5073854;28;20530;-65
2024/02/13 14:24:34;;;;;;;1.30;1.20;;;;;;;;;;5073740;28;21050;-63
2024/02/13 14:27:02;;;;;;;2.90;1.70;;;;;;;;;;5073588;28;20468;-64
2024/02/13 14:29:29;;;;;;;8.10;1.80;;;;;;;;;;5073995;28;20923;-64
2024/02/13 14:31:56;;;;;;;2.77;1.50;;;;;;;;;;5073650;28;20448;-63
2024/02/13 14:34:26;;;;;;;2.80;1.60;;;;;;;;;;5073778;28;20539;-63
2024/02/13 14:36:53;;;;;;;2.50;1.53;;;;;;;;;;5073843;28;20864;-64
2024/02/13 14:39:20;;;;;;;6.00;1.60;;;;;;;;;;5073575;28;20510;-64
2024/02/13 14:41:53;;;;;;;2.57;2.10;;;;;;;;;;5073516;28;20946;-64